createdAt,value
2018-08-23T00:00:22.596Z,27.47
2018-08-23T00:02:51.057Z,27.00
2018-08-23T00:05:20.744Z,24.63
2018-08-23T00:07:58.817Z,24.53
2018-08-23T00:10:26.227Z,24.47
2018-08-23T00:12:59.098Z,24.47
2018-08-23T00:15:30.836Z,26.10
2018-08-23T00:17:58.231Z,26.30
2018-08-23T00:20:25.651Z,24.90
2018-08-23T00:22:53.577Z,26.83
2018-08-23T00:25:21.052Z,25.40
2018-08-23T00:27:48.503Z,24.50
2018-08-23T00:30:17.855Z,26.00
2018-08-23T00:32:45.323Z,27.97
2018-08-23T00:35:18.695Z,25.00
2018-08-23T00:37:46.533Z,27.10
2018-08-23T00:40:14.736Z,28.03
2018-08-23T00:42:44.447Z,25.67
2018-08-23T00:45:14.803Z,27.50
2018-08-23T00:47:42.299Z,29.67
2018-08-23T00:50:09.956Z,27.57
2018-08-23T00:52:43.240Z,28.03
2018-08-23T00:55:29.189Z,27.90
2018-08-23T00:57:56.712Z,28.03
2018-08-23T01:00:25.376Z,28.20
2018-08-23T01:03:01.309Z,28.60
2018-08-23T01:05:34.355Z,29.70
2018-08-23T01:08:02.164Z,27.50
2018-08-23T01:10:29.633Z,29.30
2018-08-23T01:12:59.440Z,29.73
2018-08-23T01:15:27.229Z,28.87
2018-08-23T01:18:07.491Z,28.00
2018-08-23T01:20:34.954Z,28.00
2018-08-23T01:23:02.527Z,29.00
2018-08-23T01:25:31.952Z,29.90
2018-08-23T01:27:59.375Z,27.83
2018-08-23T01:30:26.759Z,28.07
2018-08-23T01:32:54.260Z,31.60
2018-08-23T01:35:21.643Z,28.90
2018-08-23T01:37:49.051Z,32.47
2018-08-23T01:40:16.522Z,28.90
2018-08-23T01:42:43.923Z,31.40
2018-08-23T01:45:11.772Z,29.80
2018-08-23T01:47:44.958Z,31.63
2018-08-23T01:50:13.328Z,32.00
2018-08-23T01:52:44.676Z,31.77
2018-08-23T01:55:14.268Z,29.90
2018-08-23T01:57:41.883Z,30.40
2018-08-23T02:00:10.305Z,40.40
2018-08-23T02:02:38.124Z,31.33
2018-08-23T02:05:06.020Z,29.70
2018-08-23T02:07:33.523Z,30.63
2018-08-23T02:10:02.501Z,30.93
2018-08-23T02:12:30.044Z,32.50
2018-08-23T02:15:00.760Z,30.73
2018-08-23T02:17:32.362Z,30.53
2018-08-23T02:19:59.860Z,31.63
2018-08-23T02:22:27.295Z,34.70
2018-08-23T02:24:54.677Z,31.83
2018-08-23T02:27:22.678Z,33.83
2018-08-23T02:29:50.108Z,33.00
2018-08-23T02:32:17.633Z,31.33
2018-08-23T02:34:46.695Z,32.80
2018-08-23T02:37:15.323Z,32.63
2018-08-23T02:39:43.665Z,33.80
2018-08-23T02:42:13.727Z,32.33
2018-08-23T02:44:42.142Z,35.90
2018-08-23T02:47:09.431Z,34.57
2018-08-23T02:49:36.879Z,36.30
2018-08-23T02:52:04.539Z,36.00
2018-08-23T02:54:32.237Z,35.97
2018-08-23T02:57:00.323Z,36.47
2018-08-23T02:59:28.404Z,33.93
2018-08-23T03:01:55.832Z,35.40
2018-08-23T03:04:25.496Z,34.80
2018-08-23T03:07:00.743Z,34.90
2018-08-23T03:09:29.647Z,33.07
2018-08-23T03:11:58.071Z,34.77
2018-08-23T03:14:26.404Z,36.17
2018-08-23T03:17:26.699Z,38.13
2018-08-23T03:19:58.596Z,37.80
2018-08-23T03:22:28.889Z,36.27
2018-08-23T03:24:58.064Z,38.40
2018-08-23T03:27:25.503Z,41.70
2018-08-23T03:29:52.975Z,39.00
2018-08-23T03:32:20.385Z,41.17
2018-08-23T03:34:47.772Z,38.63
2018-08-23T03:37:15.415Z,38.97
2018-08-23T03:39:42.830Z,40.27
2018-08-23T03:42:10.216Z,39.43
2018-08-23T03:44:38.433Z,40.77
2018-08-23T03:47:05.890Z,39.60
2018-08-23T03:49:39.119Z,38.20
2018-08-23T03:52:06.503Z,37.97
2018-08-23T03:54:33.891Z,42.50
2018-08-23T03:57:12.104Z,38.17
2018-08-23T03:59:42.199Z,41.50
2018-08-23T04:02:09.771Z,40.73
2018-08-23T04:04:37.188Z,41.93
2018-08-23T04:07:04.647Z,39.07
2018-08-23T04:09:32.068Z,41.33
2018-08-23T04:12:00.393Z,42.53
2018-08-23T04:14:27.836Z,42.50
2018-08-23T04:16:55.204Z,39.23
2018-08-23T04:19:22.624Z,42.00
2018-08-23T04:21:50.004Z,41.53
2018-08-23T04:24:17.392Z,40.17
2018-08-23T04:26:44.700Z,40.33
2018-08-23T04:29:13.981Z,41.53
2018-08-23T04:31:41.332Z,43.47
2018-08-23T04:34:08.702Z,41.83
2018-08-23T04:36:38.073Z,40.97
2018-08-23T04:39:10.092Z,42.70
2018-08-23T04:41:37.455Z,43.33
2018-08-23T04:44:13.072Z,39.93
2018-08-23T04:46:40.436Z,42.97
2018-08-23T04:49:07.836Z,42.97
2018-08-23T04:51:36.415Z,41.67
2018-08-23T04:54:03.891Z,40.00
2018-08-23T04:56:31.563Z,44.70
2018-08-23T04:58:59.083Z,45.40
2018-08-23T05:01:26.463Z,44.00
2018-08-23T05:03:53.844Z,42.70
2018-08-23T05:06:21.201Z,44.60
2018-08-23T05:08:48.907Z,44.43
2018-08-23T05:11:16.252Z,46.40
2018-08-23T05:13:43.610Z,44.67
2018-08-23T05:16:10.981Z,51.00
2018-08-23T05:18:38.316Z,47.23
2018-08-23T05:21:07.132Z,45.43
2018-08-23T05:23:34.580Z,46.80
2018-08-23T05:26:19.863Z,46.60
2018-08-23T05:29:00.025Z,50.10
2018-08-23T05:31:28.781Z,49.10
2018-08-23T05:34:01.149Z,49.50
2018-08-23T05:36:28.492Z,46.23
2018-08-23T05:38:55.856Z,47.40
2018-08-23T05:41:23.235Z,48.60
2018-08-23T05:43:59.316Z,45.87
2018-08-23T05:46:26.995Z,48.90
2018-08-23T05:48:54.359Z,49.10
2018-08-23T05:51:21.756Z,49.57
2018-08-23T05:53:51.960Z,46.77
2018-08-23T05:56:19.728Z,47.37
2018-08-23T05:58:47.088Z,48.00
2018-08-23T06:01:14.708Z,44.20
2018-08-23T06:03:42.059Z,46.83
2018-08-23T06:06:09.436Z,46.73
2018-08-23T06:08:41.747Z,44.60
2018-08-23T06:11:10.187Z,46.43
2018-08-23T06:13:37.888Z,45.57
2018-08-23T06:16:05.384Z,42.97
2018-08-23T06:18:34.255Z,45.63
2018-08-23T06:21:01.631Z,45.40
2018-08-23T06:24:09.728Z,47.60
2018-08-23T06:26:44.900Z,44.40
2018-08-23T06:29:25.737Z,43.93
2018-08-23T06:32:10.803Z,49.00
2018-08-23T06:34:49.391Z,44.60
2018-08-23T06:37:17.192Z,41.60
2018-08-23T06:39:44.383Z,45.10
2018-08-23T06:42:11.558Z,43.10
2018-08-23T06:44:49.539Z,43.50
2018-08-23T06:47:18.075Z,43.10
2018-08-23T06:49:46.384Z,42.97
2018-08-23T06:52:37.192Z,42.67
2018-08-23T06:55:04.665Z,42.27
2018-08-23T06:57:42.745Z,41.03
2018-08-23T07:00:09.999Z,42.70
2018-08-23T07:02:41.775Z,42.83
2018-08-23T07:05:09.463Z,44.20
2018-08-23T07:07:36.725Z,43.87
2018-08-23T07:10:04.084Z,45.47
2018-08-23T07:12:31.215Z,46.70
2018-08-23T07:14:58.352Z,45.57
2018-08-23T07:17:27.351Z,41.03
2018-08-23T07:19:54.537Z,44.43
2018-08-23T07:22:23.031Z,42.50
2018-08-23T07:24:51.387Z,40.77
2018-08-23T07:27:19.917Z,40.83
2018-08-23T07:29:48.484Z,42.40
2018-08-23T07:32:21.924Z,42.60
2018-08-23T07:34:58.718Z,42.00
2018-08-23T07:37:27.193Z,41.10
2018-08-23T07:40:15.026Z,42.20
2018-08-23T07:42:43.449Z,39.80
2018-08-23T07:45:10.905Z,38.23
2018-08-23T07:47:40.631Z,39.67
2018-08-23T07:50:07.860Z,40.97
2018-08-23T07:52:35.731Z,40.80
2018-08-23T07:55:03.028Z,41.70
2018-08-23T07:57:32.431Z,39.23
2018-08-23T08:00:00.955Z,40.90
2018-08-23T08:02:28.640Z,42.37
2018-08-23T08:04:56.435Z,39.00
2018-08-23T08:07:25.834Z,36.93
2018-08-23T08:09:55.136Z,31.90
2018-08-23T08:12:38.037Z,37.00
2018-08-23T08:15:11.232Z,31.07
2018-08-23T08:17:38.952Z,29.10
2018-08-23T08:20:07.560Z,27.17
2018-08-23T08:22:34.812Z,29.23
2018-08-23T08:25:08.096Z,29.40
2018-08-23T08:27:37.451Z,27.50
2018-08-23T08:30:06.587Z,27.70
2018-08-23T08:32:33.919Z,28.03
2018-08-23T08:35:01.412Z,27.57
2018-08-23T08:37:28.794Z,25.37
2018-08-23T08:39:59.767Z,25.17
2018-08-23T08:42:29.443Z,22.87
2018-08-23T08:45:01.453Z,22.50
2018-08-23T08:47:28.929Z,22.87
2018-08-23T08:49:56.324Z,22.47
2018-08-23T08:52:26.480Z,20.80
2018-08-23T08:54:53.823Z,18.93
2018-08-23T08:57:26.081Z,23.63
2018-08-23T08:59:54.383Z,23.87
2018-08-23T09:02:21.809Z,21.83
2018-08-23T09:04:53.668Z,21.60
2018-08-23T09:07:27.000Z,23.00
2018-08-23T09:09:54.450Z,21.80
2018-08-23T09:12:21.772Z,21.63
2018-08-23T09:14:53.848Z,20.80
2018-08-23T09:17:43.249Z,19.70
2018-08-23T09:20:16.412Z,19.23
2018-08-23T09:22:51.164Z,18.63
2018-08-23T09:25:22.866Z,18.00
2018-08-23T09:27:50.648Z,16.57
2018-08-23T09:30:26.268Z,16.60
2018-08-23T09:32:53.936Z,14.93
2018-08-23T09:35:25.928Z,16.17
2018-08-23T09:37:55.599Z,16.60
2018-08-23T09:40:26.488Z,16.33
2018-08-23T09:42:53.941Z,14.93
2018-08-23T09:45:21.341Z,17.60
2018-08-23T09:47:48.725Z,15.83
2018-08-23T09:50:16.483Z,17.10
2018-08-23T09:52:51.159Z,16.07
2018-08-23T09:55:19.733Z,14.00
2018-08-23T09:57:47.510Z,14.40
2018-08-23T10:00:20.674Z,12.77
2018-08-23T10:02:56.473Z,12.30
2018-08-23T10:05:29.652Z,13.20
2018-08-23T10:08:02.762Z,11.70
2018-08-23T10:10:38.388Z,10.70
2018-08-23T10:13:13.309Z,10.30
2018-08-23T10:15:43.856Z,12.10
2018-08-23T10:18:18.357Z,11.70
2018-08-23T10:20:53.664Z,11.40
2018-08-23T10:23:22.639Z,12.17
2018-08-23T10:25:52.982Z,11.33
2018-08-23T10:28:25.316Z,12.37
2018-08-23T10:30:53.030Z,11.83
2018-08-23T10:33:20.435Z,12.80
2018-08-23T10:35:50.003Z,13.90
2018-08-23T10:38:18.879Z,14.60
2018-08-23T10:40:51.937Z,14.10
2018-08-23T10:43:25.076Z,14.13
2018-08-23T10:45:52.692Z,13.23
2018-08-23T10:48:20.089Z,16.27
2018-08-23T10:50:48.488Z,15.90
2018-08-23T10:53:17.511Z,14.83
2018-08-23T10:55:45.225Z,15.57
2018-08-23T10:58:12.583Z,13.87
2018-08-23T11:00:40.063Z,13.30
2018-08-23T11:03:07.413Z,15.17
2018-08-23T11:05:34.822Z,14.73
2018-08-23T11:08:10.771Z,13.37
2018-08-23T11:10:44.024Z,11.37
2018-08-23T11:13:17.066Z,14.53
2018-08-23T11:15:47.832Z,14.00
2018-08-23T11:18:20.859Z,12.60
2018-08-23T11:20:49.448Z,11.77
2018-08-23T11:23:24.399Z,14.43
2018-08-23T11:25:53.498Z,13.70
2018-08-23T11:28:22.055Z,11.07
2018-08-23T11:30:50.163Z,12.07
2018-08-23T11:33:17.616Z,11.40
2018-08-23T11:35:45.072Z,9.57
2018-08-23T11:38:12.584Z,9.30
2018-08-23T11:40:41.432Z,9.30
2018-08-23T11:43:08.888Z,9.83
2018-08-23T11:45:36.301Z,8.97
2018-08-23T11:48:03.736Z,8.63
2018-08-23T11:50:31.133Z,8.00
2018-08-23T11:52:58.618Z,7.97
2018-08-23T11:55:28.304Z,7.77
2018-08-23T11:57:56.539Z,9.60
2018-08-23T12:00:23.955Z,8.63
2018-08-23T12:02:51.331Z,9.30
2018-08-23T12:05:18.816Z,8.80
2018-08-23T12:07:47.682Z,7.70
2018-08-23T12:10:18.796Z,7.40
2018-08-23T12:12:47.092Z,6.57
2018-08-23T12:15:21.574Z,7.50
2018-08-23T12:17:49.578Z,7.60
2018-08-23T12:20:18.784Z,6.80
2018-08-23T12:22:46.204Z,6.70
2018-08-23T12:25:13.733Z,6.63
2018-08-23T12:27:41.647Z,6.43
2018-08-23T12:30:09.041Z,5.63
2018-08-23T12:32:36.525Z,6.17
2018-08-23T12:35:06.970Z,5.87
2018-08-23T12:37:40.268Z,5.50
2018-08-23T12:40:13.463Z,5.47
2018-08-23T12:42:48.539Z,6.20
2018-08-23T12:45:16.018Z,5.60
2018-08-23T12:47:43.852Z,4.77
2018-08-23T12:50:11.249Z,5.50
2018-08-23T12:52:38.733Z,5.60
2018-08-23T12:55:06.208Z,5.67
2018-08-23T12:57:35.901Z,4.87
2018-08-23T13:00:03.446Z,4.87
2018-08-23T13:02:31.070Z,5.87
2018-08-23T13:04:58.359Z,4.93
2018-08-23T13:07:25.792Z,5.37
2018-08-23T13:09:53.180Z,6.30
2018-08-23T13:12:25.536Z,6.50
2018-08-23T13:14:52.900Z,5.67
2018-08-23T13:17:20.328Z,5.67
2018-08-23T13:19:47.740Z,4.57
2018-08-23T13:22:21.245Z,4.60
2018-08-23T13:24:56.150Z,3.80
2018-08-23T13:27:28.175Z,4.20
2018-08-23T13:29:55.454Z,4.20
2018-08-23T13:32:22.845Z,4.03
2018-08-23T13:34:55.409Z,5.20
2018-08-23T13:37:22.907Z,4.50
2018-08-23T13:39:50.276Z,4.63
2018-08-23T13:42:18.106Z,4.93
2018-08-23T13:44:45.495Z,4.77
2018-08-23T13:47:12.860Z,4.50
2018-08-23T13:49:40.210Z,4.80
2018-08-23T13:52:09.476Z,5.00
2018-08-23T13:54:36.988Z,4.70
2018-08-23T13:57:04.292Z,4.90
2018-08-23T13:59:31.624Z,5.47
2018-08-23T14:01:59.836Z,5.40
2018-08-23T14:04:27.163Z,5.37
2018-08-23T14:06:54.525Z,6.70
2018-08-23T14:09:22.044Z,6.47
2018-08-23T14:11:49.448Z,6.30
2018-08-23T14:14:16.865Z,5.80
2018-08-23T14:16:49.052Z,5.90
2018-08-23T14:19:16.331Z,4.40
2018-08-23T14:21:43.463Z,4.57
2018-08-23T14:24:10.655Z,5.20
2018-08-23T14:26:37.791Z,4.50
2018-08-23T14:29:04.951Z,4.90
2018-08-23T14:31:32.115Z,4.43
2018-08-23T14:33:59.451Z,5.07
2018-08-23T14:36:26.613Z,4.83
2018-08-23T14:38:53.883Z,5.70
2018-08-23T14:41:20.964Z,5.20
2018-08-23T14:43:48.296Z,4.70
2018-08-23T14:46:21.199Z,5.03
2018-08-23T14:48:48.686Z,4.90
2018-08-23T14:51:17.547Z,5.37
2018-08-23T14:53:45.834Z,6.10
2018-08-23T14:56:18.879Z,5.70
2018-08-23T14:58:46.128Z,5.93
2018-08-23T15:01:13.284Z,4.70
2018-08-23T15:03:40.447Z,5.33
2018-08-23T15:06:07.672Z,5.47
2018-08-23T15:08:34.836Z,6.13
2018-08-23T15:11:02.045Z,5.30
2018-08-23T15:13:29.176Z,5.67
2018-08-23T15:15:56.325Z,7.87
2018-08-23T15:18:23.588Z,6.43
2018-08-23T15:20:51.141Z,6.60
2018-08-23T15:23:18.371Z,6.20
2018-08-23T15:25:45.568Z,5.70
2018-08-23T15:28:12.773Z,5.60
2018-08-23T15:30:40.023Z,5.10
2018-08-23T15:33:07.349Z,5.20
2018-08-23T15:35:34.487Z,5.57
2018-08-23T15:38:01.697Z,5.57
2018-08-23T15:40:28.881Z,6.63
2018-08-23T15:42:56.087Z,5.27
2018-08-23T15:45:23.373Z,6.17
2018-08-23T15:47:50.679Z,5.90
2018-08-23T15:50:18.794Z,5.77
2018-08-23T15:52:46.015Z,6.30
2018-08-23T15:55:13.446Z,5.40
2018-08-23T15:57:41.380Z,6.77
2018-08-23T16:00:09.438Z,6.33
2018-08-23T16:02:36.679Z,6.63
2018-08-23T16:05:04.256Z,6.53
2018-08-23T16:07:31.608Z,7.10
2018-08-23T16:09:59.356Z,9.10
2018-08-23T16:12:26.563Z,7.47
2018-08-23T16:14:53.816Z,7.40
2018-08-23T16:17:26.853Z,7.67
2018-08-23T16:19:59.888Z,7.70
2018-08-23T16:22:27.366Z,7.80
2018-08-23T16:24:54.598Z,8.90
2018-08-23T16:27:21.788Z,8.30
2018-08-23T16:29:50.454Z,9.03
2018-08-23T16:32:23.535Z,9.43
2018-08-23T16:34:50.790Z,9.50
2018-08-23T16:37:18.006Z,9.43
2018-08-23T16:39:45.276Z,9.00
2018-08-23T16:42:12.531Z,9.20
2018-08-23T16:44:39.785Z,9.13
2018-08-23T16:47:07.407Z,7.57
2018-08-23T16:49:34.628Z,8.93
2018-08-23T16:52:01.863Z,8.60
2018-08-23T16:54:29.043Z,8.37
2018-08-23T16:56:56.476Z,7.93
2018-08-23T16:59:23.934Z,7.87
2018-08-23T17:01:51.412Z,7.70
2018-08-23T17:04:18.830Z,7.60
2018-08-23T17:06:46.231Z,7.63
2018-08-23T17:09:13.695Z,8.00
2018-08-23T17:11:41.063Z,7.17
2018-08-23T17:14:08.547Z,6.67
2018-08-23T17:16:41.664Z,6.23
2018-08-23T17:19:09.112Z,6.40
2018-08-23T17:21:36.500Z,6.73
2018-08-23T17:24:03.854Z,6.90
2018-08-23T17:26:31.374Z,6.30
2018-08-23T17:28:58.783Z,6.30
2018-08-23T17:31:26.193Z,6.43
2018-08-23T17:33:53.559Z,6.13
2018-08-23T17:36:20.892Z,6.40
2018-08-23T17:38:48.235Z,6.37
2018-08-23T17:41:15.607Z,5.90
2018-08-23T17:43:42.980Z,6.80
2018-08-23T17:46:10.444Z,7.23
2018-08-23T17:48:37.800Z,7.40
2018-08-23T17:51:05.295Z,7.60
2018-08-23T17:53:32.703Z,7.30
2018-08-23T17:56:00.157Z,8.90
2018-08-23T17:58:27.508Z,8.93
2018-08-23T18:00:54.906Z,8.10
2018-08-23T18:03:22.259Z,8.70
2018-08-23T18:05:49.668Z,11.47
2018-08-23T18:08:17.024Z,11.50
2018-08-23T18:10:44.392Z,11.73
2018-08-23T18:13:11.708Z,11.80
2018-08-23T18:15:44.731Z,11.07
2018-08-23T18:18:12.107Z,10.73
2018-08-23T18:20:39.481Z,11.67
2018-08-23T18:23:06.828Z,11.20
2018-08-23T18:25:34.289Z,11.27
2018-08-23T18:28:01.824Z,11.47
2018-08-23T18:30:29.212Z,10.63
2018-08-23T18:32:56.593Z,12.80
2018-08-23T18:35:24.174Z,13.73
2018-08-23T18:37:51.723Z,11.70
2018-08-23T18:40:19.199Z,11.60
2018-08-23T18:42:46.639Z,11.83
2018-08-23T18:45:14.044Z,11.77
2018-08-23T18:47:41.768Z,12.20
2018-08-23T18:50:09.155Z,10.80
2018-08-23T18:52:36.532Z,10.10
2018-08-23T18:55:07.046Z,11.30
2018-08-23T18:57:34.697Z,9.83
2018-08-23T19:00:02.374Z,10.60
2018-08-23T19:02:29.689Z,10.60
2018-08-23T19:04:57.492Z,9.80
2018-08-23T19:07:34.467Z,11.07
2018-08-23T19:10:01.946Z,10.20
2018-08-23T19:12:30.118Z,9.90
2018-08-23T19:14:57.531Z,9.50
2018-08-23T19:17:34.568Z,9.33
2018-08-23T19:20:01.963Z,9.57
2018-08-23T19:22:32.283Z,8.43
2018-08-23T19:24:59.773Z,9.67
2018-08-23T19:27:27.063Z,9.20
2018-08-23T19:29:58.745Z,9.00
2018-08-23T19:32:26.147Z,8.10
2018-08-23T19:34:53.537Z,8.60
2018-08-23T19:37:20.972Z,7.93
2018-08-23T19:39:48.364Z,7.80
2018-08-23T19:42:15.793Z,9.27
2018-08-23T19:44:50.122Z,8.60
2018-08-23T19:47:23.271Z,8.50
2018-08-23T19:49:52.668Z,8.50
2018-08-23T19:52:20.531Z,7.43
2018-08-23T19:54:48.124Z,8.63
2018-08-23T19:57:17.181Z,8.20
2018-08-23T19:59:44.678Z,8.40
2018-08-23T20:02:12.081Z,8.57
2018-08-23T20:04:40.523Z,8.73
2018-08-23T20:07:10.268Z,8.30
2018-08-23T20:09:37.939Z,9.00
2018-08-23T20:12:05.311Z,8.10
2018-08-23T20:14:33.183Z,8.20
2018-08-23T20:17:00.802Z,7.57
2018-08-23T20:19:28.365Z,9.20
2018-08-23T20:21:56.180Z,9.40
2018-08-23T20:24:23.527Z,8.33
2018-08-23T20:26:50.886Z,8.77
2018-08-23T20:29:18.244Z,8.67
2018-08-23T20:31:45.594Z,8.20
2018-08-23T20:34:12.995Z,7.70
2018-08-23T20:36:40.375Z,7.50
2018-08-23T20:39:09.999Z,8.00
2018-08-23T20:41:37.288Z,8.23
2018-08-23T20:44:04.552Z,8.63
2018-08-23T20:46:32.000Z,6.63
2018-08-23T20:48:59.191Z,6.53
2018-08-23T20:51:26.469Z,6.80
2018-08-23T20:53:53.814Z,6.23
2018-08-23T20:56:21.169Z,6.37
2018-08-23T20:58:48.463Z,5.23
2018-08-23T21:01:15.715Z,7.10
2018-08-23T21:03:42.949Z,5.20
2018-08-23T21:06:10.085Z,5.20
2018-08-23T21:08:37.275Z,5.13
2018-08-23T21:11:04.476Z,5.47
2018-08-23T21:13:31.620Z,4.37
2018-08-23T21:15:58.868Z,4.80
2018-08-23T21:18:26.047Z,5.17
2018-08-23T21:20:53.312Z,5.13
2018-08-23T21:23:20.557Z,4.67
2018-08-23T21:25:47.799Z,5.10
2018-08-23T21:28:14.987Z,4.93
2018-08-23T21:30:42.211Z,4.80
2018-08-23T21:33:09.388Z,4.13
2018-08-23T21:35:38.524Z,3.93
2018-08-23T21:38:05.828Z,4.00
2018-08-23T21:40:33.040Z,4.30
2018-08-23T21:43:00.382Z,4.17
2018-08-23T21:45:27.571Z,4.23
2018-08-23T21:47:54.795Z,4.27
2018-08-23T21:50:22.081Z,4.27
2018-08-23T21:52:51.218Z,4.13
2018-08-23T21:55:22.566Z,3.53
2018-08-23T21:57:49.800Z,4.10
2018-08-23T22:00:17.024Z,3.47
2018-08-23T22:02:44.237Z,3.80
2018-08-23T22:05:11.457Z,4.13
2018-08-23T22:07:38.719Z,3.60
2018-08-23T22:10:06.006Z,3.53
2018-08-23T22:12:33.108Z,3.17
2018-08-23T22:15:00.344Z,2.97
2018-08-23T22:17:27.595Z,2.90
2018-08-23T22:19:54.879Z,3.00
2018-08-23T22:22:22.106Z,3.57
2018-08-23T22:24:49.428Z,3.70
2018-08-23T22:27:16.623Z,3.63
2018-08-23T22:29:43.803Z,3.20
2018-08-23T22:32:10.935Z,3.53
2018-08-23T22:34:38.099Z,3.23
2018-08-23T22:37:05.279Z,3.43
2018-08-23T22:39:32.488Z,3.33
2018-08-23T22:41:59.856Z,4.00
2018-08-23T22:44:27.040Z,3.07
2018-08-23T22:46:54.252Z,2.97
2018-08-23T22:49:21.721Z,3.60
2018-08-23T22:51:48.876Z,2.90
2018-08-23T22:54:16.188Z,3.17
2018-08-23T22:56:43.740Z,2.90
2018-08-23T22:59:10.875Z,2.90
2018-08-23T23:01:38.663Z,2.70
2018-08-23T23:04:11.645Z,3.30
2018-08-23T23:06:38.828Z,3.47
2018-08-23T23:09:07.921Z,2.63
2018-08-23T23:11:35.180Z,3.00
2018-08-23T23:14:02.339Z,2.97
2018-08-23T23:16:29.574Z,2.80
2018-08-23T23:18:56.786Z,2.90
2018-08-23T23:21:25.688Z,2.77
2018-08-23T23:23:53.025Z,2.70
2018-08-23T23:26:20.193Z,2.37
2018-08-23T23:28:47.335Z,3.47
2018-08-23T23:31:14.500Z,2.77
2018-08-23T23:33:41.823Z,2.70
2018-08-23T23:36:08.971Z,2.97
2018-08-23T23:38:36.224Z,2.73
2018-08-23T23:41:03.400Z,2.00
2018-08-23T23:43:30.688Z,2.00
2018-08-23T23:45:57.981Z,2.43
2018-08-23T23:48:25.288Z,2.37
2018-08-23T23:50:52.522Z,2.20
2018-08-23T23:53:19.673Z,2.30
2018-08-23T23:55:46.817Z,2.50
2018-08-23T23:58:13.978Z,2.20
